createdAt,value
2023-02-26T00:00:56.937Z,99257.00
2023-02-26T00:02:30.188Z,99260.00
2023-02-26T00:04:06.460Z,99263.00
2023-02-26T00:05:39.607Z,99259.00
2023-02-26T00:07:13.079Z,99268.00
2023-02-26T00:08:45.483Z,99271.00
2023-02-26T00:10:18.803Z,99272.00
2023-02-26T00:11:52.401Z,99265.00
2023-02-26T00:13:28.090Z,99274.00
2023-02-26T00:15:02.224Z,99270.00
2023-02-26T00:16:37.417Z,99279.00
2023-02-26T00:18:17.431Z,99282.00
2023-02-26T00:19:51.299Z,99288.00
2023-02-26T00:21:27.254Z,99285.00
2023-02-26T00:23:01.297Z,99284.00
2023-02-26T00:24:34.481Z,99287.00
2023-02-26T00:26:07.533Z,99288.00
2023-02-26T00:27:41.648Z,99294.00
2023-02-26T00:29:17.113Z,99304.00
2023-02-26T00:30:51.255Z,99298.00
2023-02-26T00:32:25.469Z,99300.00
2023-02-26T00:34:00.025Z,99308.00
2023-02-26T00:35:35.203Z,99300.00
2023-02-26T00:37:24.394Z,99306.00
2023-02-26T00:39:13.209Z,99297.00
2023-02-26T00:40:49.272Z,99313.00
2023-02-26T00:42:23.199Z,99307.00
2023-02-26T00:43:57.047Z,99312.00
2023-02-26T00:45:35.438Z,99312.00
2023-02-26T00:47:21.786Z,99322.00
2023-02-26T00:49:08.538Z,99326.00
2023-02-26T00:50:50.940Z,99315.00
2023-02-26T00:52:31.921Z,99328.00
2023-02-26T00:54:14.554Z,99327.00
2023-02-26T00:55:47.838Z,99332.00
2023-02-26T00:57:21.258Z,99326.00
2023-02-26T00:58:54.379Z,99327.00
2023-02-26T01:00:28.043Z,99325.00
2023-02-26T01:02:02.636Z,99330.00
2023-02-26T01:03:36.820Z,99326.00
2023-02-26T01:05:12.357Z,99324.00
2023-02-26T01:06:49.071Z,99331.00
2023-02-26T01:08:31.339Z,99330.00
2023-02-26T01:10:06.525Z,99334.00
2023-02-26T01:11:40.357Z,99341.00
2023-02-26T01:13:14.372Z,99339.00
2023-02-26T01:14:49.721Z,99331.00
2023-02-26T01:16:29.070Z,99331.00
2023-02-26T01:18:13.135Z,99326.00
2023-02-26T01:19:54.278Z,99331.00
2023-02-26T01:21:35.541Z,99331.00
2023-02-26T01:23:15.439Z,99322.00
2023-02-26T01:24:52.012Z,99327.00
2023-02-26T01:26:30.095Z,99327.00
2023-02-26T01:28:03.737Z,99326.00
2023-02-26T01:29:37.299Z,99328.00
2023-02-26T01:31:35.527Z,99330.00
2023-02-26T01:33:15.365Z,99330.00
2023-02-26T01:34:57.789Z,99326.00
2023-02-26T01:36:40.309Z,99334.00
2023-02-26T01:38:28.262Z,99333.00
2023-02-26T01:40:37.178Z,99332.00
2023-02-26T01:42:18.826Z,99344.00
2023-02-26T01:44:05.830Z,99344.00
2023-02-26T01:45:56.264Z,99356.00
2023-02-26T01:47:40.742Z,99357.00
2023-02-26T01:49:19.699Z,99349.00
2023-02-26T01:50:52.837Z,99355.00
2023-02-26T01:53:17.569Z,99369.00
2023-02-26T01:54:50.663Z,99378.00
2023-02-26T01:56:24.181Z,99373.00
2023-02-26T01:58:02.526Z,99375.00
2023-02-26T01:59:40.612Z,99373.00
2023-02-26T02:01:13.412Z,99378.00
2023-02-26T02:02:47.969Z,99378.00
2023-02-26T02:04:25.369Z,99367.00
2023-02-26T02:06:07.280Z,99366.00
2023-02-26T02:07:40.927Z,99376.00
2023-02-26T02:09:14.949Z,99374.00
2023-02-26T02:10:52.302Z,99374.00
2023-02-26T02:12:36.374Z,99373.00
2023-02-26T02:14:28.412Z,99378.00
2023-02-26T02:16:18.051Z,99376.00
2023-02-26T02:18:04.562Z,99378.00
2023-02-26T02:20:28.902Z,99372.00
2023-02-26T02:22:33.428Z,99370.00
2023-02-26T02:24:13.978Z,99374.00
2023-02-26T02:26:49.497Z,99371.00
2023-02-26T02:28:45.624Z,99362.00
2023-02-26T02:30:38.393Z,99374.00
2023-02-26T02:32:20.017Z,99380.00
2023-02-26T02:34:04.209Z,99378.00
2023-02-26T02:35:42.601Z,99387.00
2023-02-26T02:37:23.174Z,99388.00
2023-02-26T02:39:03.587Z,99389.00
2023-02-26T02:40:42.570Z,99381.00
2023-02-26T02:42:29.509Z,99393.00
2023-02-26T02:44:08.029Z,99400.00
2023-02-26T02:45:49.116Z,99393.00
2023-02-26T02:47:24.596Z,99396.00
2023-02-26T02:49:10.987Z,99402.00
2023-02-26T02:50:51.286Z,99393.00
2023-02-26T02:52:32.472Z,99400.00
2023-02-26T02:54:11.142Z,99405.00
2023-02-26T02:55:55.588Z,99405.00
2023-02-26T02:57:36.695Z,99406.00
2023-02-26T02:59:21.561Z,99414.00
2023-02-26T03:01:01.591Z,99412.00
2023-02-26T03:02:46.729Z,99396.00
2023-02-26T03:04:20.669Z,99413.00
2023-02-26T03:05:54.345Z,99415.00
2023-02-26T03:07:28.087Z,99416.00
2023-02-26T03:09:04.179Z,99421.00
2023-02-26T03:10:37.058Z,99424.00
2023-02-26T03:12:10.301Z,99421.00
2023-02-26T03:13:44.549Z,99436.00
2023-02-26T03:15:37.460Z,99428.00
2023-02-26T03:17:28.275Z,99429.00
2023-02-26T03:19:16.400Z,99444.00
2023-02-26T03:21:04.057Z,99422.00
2023-02-26T03:22:47.460Z,99434.00
2023-02-26T03:24:32.553Z,99431.00
2023-02-26T03:26:14.900Z,99441.00
2023-02-26T03:27:57.057Z,99435.00
2023-02-26T03:29:41.533Z,99442.00
2023-02-26T03:31:23.065Z,99439.00
2023-02-26T03:33:06.881Z,99436.00
2023-02-26T03:34:50.784Z,99434.00
2023-02-26T03:36:31.038Z,99450.00
2023-02-26T03:38:28.593Z,99448.00
2023-02-26T03:40:10.906Z,99447.00
2023-02-26T03:41:50.004Z,99451.00
2023-02-26T03:43:33.901Z,99447.00
2023-02-26T03:45:14.970Z,99449.00
2023-02-26T03:46:54.876Z,99454.00
2023-02-26T03:48:32.410Z,99451.00
2023-02-26T03:50:13.686Z,99456.00
2023-02-26T03:52:07.586Z,99457.00
2023-02-26T03:54:06.999Z,99461.00
2023-02-26T03:55:51.414Z,99468.00
2023-02-26T03:57:45.917Z,99472.00
2023-02-26T03:59:45.640Z,99460.00
2023-02-26T04:01:54.884Z,99472.00
2023-02-26T04:03:36.265Z,99471.00
2023-02-26T04:05:16.209Z,99475.00
2023-02-26T04:06:53.407Z,99475.00
2023-02-26T04:08:28.364Z,99479.00
2023-02-26T04:10:01.577Z,99481.00
2023-02-26T04:11:38.225Z,99481.00
2023-02-26T04:13:10.650Z,99479.00
2023-02-26T04:14:43.944Z,99484.00
2023-02-26T04:16:18.590Z,99489.00
2023-02-26T04:17:51.993Z,99486.00
2023-02-26T04:19:24.119Z,99489.00
2023-02-26T04:20:58.588Z,99487.00
2023-02-26T04:22:31.670Z,99488.00
2023-02-26T04:24:05.309Z,99484.00
2023-02-26T04:25:38.576Z,99489.00
2023-02-26T04:27:12.382Z,99482.00
2023-02-26T04:28:44.510Z,99500.00
2023-02-26T04:30:18.855Z,99491.00
2023-02-26T04:31:53.407Z,99498.00
2023-02-26T04:33:26.854Z,99494.00
2023-02-26T04:34:59.959Z,99507.00
2023-02-26T04:36:35.716Z,99509.00
2023-02-26T04:38:08.068Z,99501.00
2023-02-26T04:39:41.330Z,99503.00
2023-02-26T04:41:15.941Z,99504.00
2023-02-26T04:42:49.766Z,99510.00
2023-02-26T04:44:28.703Z,99513.00
2023-02-26T04:46:01.964Z,99507.00
2023-02-26T04:47:36.245Z,99512.00
2023-02-26T04:49:09.584Z,99506.00
2023-02-26T04:50:43.880Z,99517.00
2023-02-26T04:52:18.400Z,99517.00
2023-02-26T04:53:51.918Z,99520.00
2023-02-26T04:55:25.897Z,99528.00
2023-02-26T04:56:59.098Z,99534.00
2023-02-26T04:58:31.969Z,99526.00
2023-02-26T05:00:12.211Z,99523.00
2023-02-26T05:01:45.739Z,99526.00
2023-02-26T05:03:19.649Z,99532.00
2023-02-26T05:04:52.577Z,99532.00
2023-02-26T05:06:26.208Z,99536.00
2023-02-26T05:08:01.170Z,99532.00
2023-02-26T05:09:33.525Z,99538.00
2023-02-26T05:11:07.236Z,99536.00
2023-02-26T05:12:40.386Z,99540.00
2023-02-26T05:14:13.664Z,99540.00
2023-02-26T05:15:47.895Z,99543.00
2023-02-26T05:17:20.125Z,99542.00
2023-02-26T05:18:53.755Z,99543.00
2023-02-26T05:20:27.131Z,99541.00
2023-02-26T05:22:00.500Z,99542.00
2023-02-26T05:23:35.240Z,99540.00
2023-02-26T05:25:10.060Z,99540.00
2023-02-26T05:26:43.421Z,99548.00
2023-02-26T05:28:15.972Z,99550.00
2023-02-26T05:29:49.143Z,99542.00
2023-02-26T05:31:22.411Z,99552.00
2023-02-26T05:32:55.702Z,99561.00
2023-02-26T05:34:27.836Z,99551.00
2023-02-26T05:36:00.959Z,99554.00
2023-02-26T05:37:34.286Z,99553.00
2023-02-26T05:39:10.319Z,99572.00
2023-02-26T05:40:43.903Z,99568.00
2023-02-26T05:42:17.485Z,99570.00
2023-02-26T05:43:50.944Z,99570.00
2023-02-26T05:45:24.322Z,99578.00
2023-02-26T05:46:57.512Z,99581.00
2023-02-26T05:48:30.994Z,99572.00
2023-02-26T05:50:04.556Z,99589.00
2023-02-26T05:51:38.447Z,99576.00
2023-02-26T05:53:11.733Z,99592.00
2023-02-26T05:54:46.323Z,99594.00
2023-02-26T05:56:19.663Z,99594.00
2023-02-26T05:57:52.836Z,99597.00
2023-02-26T05:59:26.109Z,99594.00
2023-02-26T06:01:00.348Z,99602.00
2023-02-26T06:02:33.702Z,99612.00
2023-02-26T06:04:06.836Z,99607.00
2023-02-26T06:05:39.994Z,99613.00
2023-02-26T06:07:13.246Z,99614.00
2023-02-26T06:08:46.558Z,99621.00
2023-02-26T06:10:21.304Z,99622.00
2023-02-26T06:11:56.136Z,99634.00
2023-02-26T06:13:31.696Z,99639.00
2023-02-26T06:15:07.452Z,99623.00
2023-02-26T06:16:40.668Z,99632.00
2023-02-26T06:18:14.466Z,99640.00
2023-02-26T06:19:47.820Z,99647.00
2023-02-26T06:21:21.618Z,99645.00
2023-02-26T06:22:54.889Z,99643.00
2023-02-26T06:24:28.028Z,99647.00
2023-02-26T06:26:02.579Z,99642.00
2023-02-26T06:27:35.635Z,99652.00
2023-02-26T06:29:09.143Z,99651.00
2023-02-26T06:30:42.270Z,99655.00
2023-02-26T06:32:15.584Z,99649.00
2023-02-26T06:33:48.841Z,99648.00
2023-02-26T06:35:22.319Z,99665.00
2023-02-26T06:36:55.400Z,99669.00
2023-02-26T06:38:28.927Z,99673.00
2023-02-26T06:40:02.031Z,99677.00
2023-02-26T06:41:36.813Z,99674.00
2023-02-26T06:43:10.329Z,99688.00
2023-02-26T06:44:43.783Z,99679.00
2023-02-26T06:46:16.925Z,99682.00
2023-02-26T06:47:50.098Z,99690.00
2023-02-26T06:49:23.222Z,99691.00
2023-02-26T06:50:55.748Z,99684.00
2023-02-26T06:52:28.855Z,99696.00
2023-02-26T06:54:02.213Z,99705.00
2023-02-26T06:55:34.474Z,99704.00
2023-02-26T06:57:08.950Z,99713.00
2023-02-26T06:58:42.291Z,99709.00
2023-02-26T07:00:16.856Z,99712.00
2023-02-26T07:01:50.057Z,99723.00
2023-02-26T07:03:23.282Z,99730.00
2023-02-26T07:04:56.410Z,99722.00
2023-02-26T07:06:29.711Z,99719.00
2023-02-26T07:08:02.830Z,99723.00
2023-02-26T07:09:36.014Z,99730.00
2023-02-26T07:11:10.254Z,99733.00
2023-02-26T07:12:44.815Z,99737.00
2023-02-26T07:14:17.905Z,99741.00
2023-02-26T07:15:51.381Z,99734.00
2023-02-26T07:17:24.741Z,99729.00
2023-02-26T07:18:57.902Z,99736.00
2023-02-26T07:20:31.073Z,99741.00
2023-02-26T07:22:04.261Z,99737.00
2023-02-26T07:23:37.526Z,99749.00
2023-02-26T07:25:12.460Z,99749.00
2023-02-26T07:26:45.529Z,99752.00
2023-02-26T07:28:21.129Z,99750.00
2023-02-26T07:29:54.279Z,99757.00
2023-02-26T07:31:28.015Z,99749.00
2023-02-26T07:33:01.865Z,99753.00
2023-02-26T07:34:35.124Z,99758.00
2023-02-26T07:36:08.673Z,99760.00
2023-02-26T07:37:42.081Z,99759.00
2023-02-26T07:39:15.368Z,99774.00
2023-02-26T07:40:48.716Z,99773.00
2023-02-26T07:42:22.075Z,99774.00
2023-02-26T07:43:56.554Z,99778.00
2023-02-26T07:45:29.653Z,99778.00
2023-02-26T07:47:03.193Z,99773.00
2023-02-26T07:48:37.012Z,99788.00
2023-02-26T07:50:12.680Z,99780.00
2023-02-26T07:51:45.959Z,99790.00
2023-02-26T07:53:19.151Z,99788.00
2023-02-26T07:54:52.700Z,99793.00
2023-02-26T07:56:26.136Z,99800.00
2023-02-26T07:57:59.432Z,99793.00
2023-02-26T07:59:35.369Z,99802.00
2023-02-26T08:01:08.584Z,99817.00
2023-02-26T08:02:41.969Z,99805.00
2023-02-26T08:04:15.409Z,99812.00
2023-02-26T08:05:48.778Z,99817.00
2023-02-26T08:07:21.893Z,99806.00
2023-02-26T08:08:55.008Z,99820.00
2023-02-26T08:10:28.179Z,99810.00
2023-02-26T08:12:01.344Z,99813.00
2023-02-26T08:13:34.719Z,99818.00
2023-02-26T08:15:11.991Z,99822.00
2023-02-26T08:16:45.115Z,99811.00
2023-02-26T08:18:18.274Z,99813.00
2023-02-26T08:19:51.399Z,99810.00
2023-02-26T08:21:25.782Z,99806.00
2023-02-26T08:22:58.895Z,99809.00
2023-02-26T08:24:32.088Z,99817.00
2023-02-26T08:26:08.493Z,99813.00
2023-02-26T08:27:41.643Z,99811.00
2023-02-26T08:29:14.822Z,99810.00
2023-02-26T08:30:49.436Z,99824.00
2023-02-26T08:32:23.884Z,99805.00
2023-02-26T08:33:57.831Z,99813.00
2023-02-26T08:35:31.401Z,99819.00
2023-02-26T08:37:04.601Z,99823.00
2023-02-26T08:38:42.757Z,99829.00
2023-02-26T08:40:16.275Z,99837.00
2023-02-26T08:41:49.369Z,99838.00
2023-02-26T08:43:22.960Z,99832.00
2023-02-26T08:44:56.061Z,99842.00
2023-02-26T08:46:30.746Z,99840.00
2023-02-26T08:48:04.317Z,99850.00
2023-02-26T08:49:40.897Z,99846.00
2023-02-26T08:51:14.445Z,99853.00
2023-02-26T08:52:47.613Z,99844.00
2023-02-26T08:54:20.681Z,99856.00
2023-02-26T08:55:54.615Z,99857.00
2023-02-26T08:57:27.744Z,99861.00
2023-02-26T08:59:01.082Z,99864.00
2023-02-26T09:00:34.815Z,99871.00
2023-02-26T09:02:11.791Z,99879.00
2023-02-26T09:03:44.899Z,99865.00
2023-02-26T09:05:19.534Z,99865.00
2023-02-26T09:06:52.704Z,99879.00
2023-02-26T09:08:25.956Z,99871.00
2023-02-26T09:09:59.137Z,99871.00
2023-02-26T09:11:32.478Z,99866.00
2023-02-26T09:13:05.838Z,99879.00
2023-02-26T09:14:39.041Z,99884.00
2023-02-26T09:16:12.564Z,99887.00
2023-02-26T09:17:48.822Z,99880.00
2023-02-26T09:19:22.072Z,99886.00
2023-02-26T09:20:55.528Z,99882.00
2023-02-26T09:22:28.700Z,99878.00
2023-02-26T09:24:02.200Z,99886.00
2023-02-26T09:25:35.450Z,99885.00
2023-02-26T09:27:08.872Z,99886.00
2023-02-26T09:28:42.273Z,99895.00
2023-02-26T09:30:16.457Z,99895.00
2023-02-26T09:31:50.073Z,99904.00
2023-02-26T09:33:25.390Z,99901.00
2023-02-26T09:34:58.457Z,99897.00
2023-02-26T09:36:32.326Z,99917.00
2023-02-26T09:38:05.586Z,99907.00
2023-02-26T09:39:39.338Z,99908.00
2023-02-26T09:41:23.236Z,99899.00
2023-02-26T09:43:16.251Z,99919.00
2023-02-26T09:44:51.199Z,99921.00
2023-02-26T09:46:37.297Z,99912.00
2023-02-26T09:48:17.475Z,99917.00
2023-02-26T09:49:58.860Z,99924.00
2023-02-26T09:51:35.901Z,99907.00
2023-02-26T09:53:20.197Z,99912.00
2023-02-26T09:54:57.808Z,99899.00
2023-02-26T09:56:37.858Z,99902.00
2023-02-26T09:58:21.790Z,99907.00
2023-02-26T09:59:55.652Z,99900.00
2023-02-26T10:01:38.412Z,99905.00
2023-02-26T10:03:27.144Z,99901.00
2023-02-26T10:05:19.991Z,99903.00
2023-02-26T10:07:10.302Z,99911.00
2023-02-26T10:08:54.466Z,99911.00
2023-02-26T10:10:42.422Z,99912.00
2023-02-26T10:12:20.329Z,99909.00
2023-02-26T10:14:03.137Z,99908.00
2023-02-26T10:15:43.571Z,99926.00
2023-02-26T10:17:24.424Z,99932.00
2023-02-26T10:19:03.115Z,99916.00
2023-02-26T10:20:45.796Z,99921.00
2023-02-26T10:22:29.678Z,99928.00
2023-02-26T10:24:09.136Z,99927.00
2023-02-26T10:25:48.527Z,99928.00
2023-02-26T10:27:32.761Z,99928.00
2023-02-26T10:29:18.677Z,99930.00
2023-02-26T10:30:59.317Z,99933.00
2023-02-26T10:32:39.803Z,99939.00
2023-02-26T10:34:26.816Z,99938.00
2023-02-26T10:36:17.889Z,99941.00
2023-02-26T10:37:58.816Z,99944.00
2023-02-26T10:39:40.176Z,99948.00
2023-02-26T10:41:19.281Z,99954.00
2023-02-26T10:42:59.939Z,99942.00
2023-02-26T10:44:42.888Z,99940.00
2023-02-26T10:46:30.783Z,99954.00
2023-02-26T10:48:24.861Z,99950.00
2023-02-26T10:50:04.047Z,99954.00
2023-02-26T10:51:41.026Z,99956.00
2023-02-26T10:53:14.401Z,99964.00
2023-02-26T10:55:34.255Z,99970.00
2023-02-26T10:57:18.881Z,99962.00
2023-02-26T10:58:54.910Z,99969.00
2023-02-26T11:00:28.707Z,99968.00
2023-02-26T11:02:02.203Z,99967.00
2023-02-26T11:03:41.335Z,99966.00
2023-02-26T11:05:19.860Z,99964.00
2023-02-26T11:06:59.567Z,99960.00
2023-02-26T11:08:40.845Z,99960.00
2023-02-26T11:10:20.379Z,99965.00
2023-02-26T11:11:56.284Z,99974.00
2023-02-26T11:13:32.206Z,99967.00
2023-02-26T11:15:06.423Z,99967.00
2023-02-26T11:16:50.212Z,99981.00
2023-02-26T11:18:27.985Z,99972.00
2023-02-26T11:20:05.244Z,99968.00
2023-02-26T11:21:44.326Z,99972.00
2023-02-26T11:23:22.844Z,99980.00
2023-02-26T11:24:57.869Z,99973.00
2023-02-26T11:26:37.723Z,99968.00
2023-02-26T11:28:25.208Z,99982.00
2023-02-26T11:30:06.105Z,99976.00
2023-02-26T11:31:41.977Z,99976.00
2023-02-26T11:33:23.024Z,99983.00
2023-02-26T11:34:56.069Z,99972.00
2023-02-26T11:36:32.910Z,99974.00
2023-02-26T11:38:06.264Z,99976.00
2023-02-26T11:39:41.092Z,99969.00
2023-02-26T11:41:15.060Z,99978.00
2023-02-26T11:42:54.721Z,99968.00
2023-02-26T11:44:37.439Z,99984.00
2023-02-26T11:46:12.198Z,99980.00
2023-02-26T11:47:45.971Z,99988.00
2023-02-26T11:49:24.846Z,99985.00
2023-02-26T11:51:02.169Z,99983.00
2023-02-26T11:52:37.393Z,99998.00
2023-02-26T11:54:24.194Z,99978.00
2023-02-26T11:56:05.269Z,99986.00
2023-02-26T11:57:44.374Z,99989.00
2023-02-26T11:59:21.911Z,99988.00
2023-02-26T12:01:00.192Z,100002.00
2023-02-26T12:02:36.043Z,99996.00
2023-02-26T12:04:13.972Z,99987.00
2023-02-26T12:05:47.558Z,99993.00
2023-02-26T12:07:22.329Z,99991.00
2023-02-26T12:08:56.287Z,100003.00
2023-02-26T12:11:01.565Z,99993.00
2023-02-26T12:12:52.194Z,100002.00
2023-02-26T12:14:55.696Z,100001.00
2023-02-26T12:16:44.723Z,99989.00
2023-02-26T12:18:39.013Z,99989.00
2023-02-26T12:20:21.941Z,99983.00
2023-02-26T12:22:24.359Z,99986.00
2023-02-26T12:24:53.872Z,99968.00
2023-02-26T12:26:33.075Z,99982.00
2023-02-26T12:28:39.446Z,99983.00
2023-02-26T12:30:38.730Z,99985.00
2023-02-26T12:32:57.979Z,99993.00
2023-02-26T12:34:51.191Z,99992.00
2023-02-26T12:36:49.106Z,99989.00
2023-02-26T12:38:33.532Z,99986.00
2023-02-26T12:40:30.674Z,99985.00
2023-02-26T12:42:22.397Z,99997.00
2023-02-26T12:44:00.754Z,99991.00
2023-02-26T12:45:53.946Z,99990.00
2023-02-26T12:47:44.973Z,99982.00
2023-02-26T12:49:52.058Z,99990.00
2023-02-26T12:51:51.523Z,99985.00
2023-02-26T12:53:56.211Z,99989.00
2023-02-26T12:55:43.171Z,99996.00
2023-02-26T12:57:48.056Z,99998.00
2023-02-26T12:59:53.699Z,100002.00
2023-02-26T13:02:02.904Z,100002.00
2023-02-26T13:04:03.316Z,100003.00
2023-02-26T13:06:18.285Z,100000.00
2023-02-26T13:08:09.428Z,99987.00
2023-02-26T13:09:58.159Z,99997.00
2023-02-26T13:11:51.282Z,99996.00
2023-02-26T13:13:54.972Z,99995.00
2023-02-26T13:15:49.311Z,100006.00
2023-02-26T13:17:34.227Z,99999.00
2023-02-26T13:19:30.780Z,100005.00
2023-02-26T13:21:14.643Z,100001.00
2023-02-26T13:22:52.936Z,100004.00
2023-02-26T13:24:36.603Z,99998.00
2023-02-26T13:26:14.770Z,100008.00
2023-02-26T13:27:50.104Z,100007.00
2023-02-26T13:29:36.761Z,100003.00
2023-02-26T13:31:18.645Z,100000.00
2023-02-26T13:33:00.730Z,100004.00
2023-02-26T13:34:57.446Z,100013.00
2023-02-26T13:36:35.156Z,100008.00
2023-02-26T13:38:22.902Z,99997.00
2023-02-26T13:40:30.802Z,99996.00
2023-02-26T13:42:19.170Z,99986.00
2023-02-26T13:44:14.050Z,99993.00
2023-02-26T13:45:59.608Z,100015.00
2023-02-26T13:47:53.643Z,100006.00
2023-02-26T13:49:39.523Z,100001.00
2023-02-26T13:51:29.869Z,100011.00
2023-02-26T13:53:28.037Z,99999.00
2023-02-26T13:55:03.820Z,100001.00
2023-02-26T13:56:55.315Z,100001.00
2023-02-26T13:58:36.728Z,99992.00
2023-02-26T14:00:26.857Z,100000.00
2023-02-26T14:02:05.063Z,99987.00
2023-02-26T14:03:47.789Z,99985.00
2023-02-26T14:05:54.932Z,99998.00
2023-02-26T14:07:53.728Z,99991.00
2023-02-26T14:09:46.900Z,99994.00
2023-02-26T14:11:46.993Z,99989.00
2023-02-26T14:13:24.251Z,99995.00
2023-02-26T14:15:43.882Z,100005.00
2023-02-26T14:17:38.665Z,99993.00
2023-02-26T14:19:33.285Z,99992.00
2023-02-26T14:21:40.264Z,100003.00
2023-02-26T14:23:38.814Z,100005.00
2023-02-26T14:25:28.203Z,100013.00
2023-02-26T14:27:37.276Z,100004.00
2023-02-26T14:29:21.065Z,99999.00
2023-02-26T14:31:12.321Z,100003.00
2023-02-26T14:32:54.692Z,100006.00
2023-02-26T14:34:38.810Z,100004.00
2023-02-26T14:36:22.456Z,100008.00
2023-02-26T14:38:04.320Z,100004.00
2023-02-26T14:39:42.732Z,100013.00
2023-02-26T14:41:29.119Z,100007.00
2023-02-26T14:43:06.883Z,100010.00
2023-02-26T14:44:46.030Z,100017.00
2023-02-26T14:46:20.299Z,100013.00
2023-02-26T14:47:54.778Z,100002.00
2023-02-26T14:49:33.411Z,99997.00
2023-02-26T14:51:26.359Z,100001.00
2023-02-26T14:53:40.332Z,99992.00
2023-02-26T14:55:49.309Z,99991.00
2023-02-26T14:57:39.189Z,100013.00
2023-02-26T14:59:40.652Z,100008.00
2023-02-26T15:01:46.367Z,100007.00
2023-02-26T15:04:04.449Z,100010.00
2023-02-26T15:05:55.800Z,100021.00
2023-02-26T15:07:55.436Z,100016.00
2023-02-26T15:09:43.625Z,100014.00
2023-02-26T15:12:01.174Z,100015.00
2023-02-26T15:14:07.682Z,100014.00
2023-02-26T15:15:56.229Z,100008.00
2023-02-26T15:17:56.819Z,100003.00
2023-02-26T15:19:50.202Z,100018.00
2023-02-26T15:21:37.884Z,100020.00
2023-02-26T15:23:38.484Z,100014.00
2023-02-26T15:25:32.421Z,100015.00
2023-02-26T15:27:09.429Z,100019.00
2023-02-26T15:28:46.703Z,100020.00
2023-02-26T15:30:20.732Z,100025.00
2023-02-26T15:31:57.473Z,100023.00
2023-02-26T15:33:32.321Z,100029.00
2023-02-26T15:35:17.714Z,100033.00
2023-02-26T15:36:54.134Z,100038.00
2023-02-26T15:38:28.342Z,100036.00
2023-02-26T15:40:04.765Z,100031.00
2023-02-26T15:41:40.458Z,100029.00
2023-02-26T15:43:21.282Z,100025.00
2023-02-26T15:45:03.087Z,100039.00
2023-02-26T15:46:41.026Z,100036.00
2023-02-26T15:48:19.660Z,100039.00
2023-02-26T15:49:54.350Z,100036.00
2023-02-26T15:51:28.725Z,100038.00
2023-02-26T15:53:06.910Z,100026.00
2023-02-26T15:54:44.766Z,100043.00
2023-02-26T15:56:24.697Z,100043.00
2023-02-26T15:58:00.399Z,100032.00
2023-02-26T15:59:36.244Z,100048.00
2023-02-26T16:01:18.251Z,100047.00
2023-02-26T16:02:53.299Z,100038.00
2023-02-26T16:04:26.710Z,100040.00
2023-02-26T16:06:01.090Z,100047.00
2023-02-26T16:07:34.408Z,100045.00
2023-02-26T16:09:18.002Z,100038.00
2023-02-26T16:10:53.111Z,100048.00
2023-02-26T16:12:43.642Z,100037.00
2023-02-26T16:14:25.731Z,100042.00
2023-02-26T16:16:03.724Z,100038.00
2023-02-26T16:17:44.014Z,100049.00
2023-02-26T16:19:20.846Z,100054.00
2023-02-26T16:20:59.204Z,100043.00
2023-02-26T16:22:37.637Z,100057.00
2023-02-26T16:24:19.015Z,100053.00
2023-02-26T16:25:56.528Z,100051.00
2023-02-26T16:27:32.994Z,100047.00
2023-02-26T16:29:15.406Z,100053.00
2023-02-26T16:30:54.351Z,100074.00
2023-02-26T16:32:32.794Z,100052.00
2023-02-26T16:34:31.301Z,100069.00
2023-02-26T16:36:14.196Z,100074.00
2023-02-26T16:37:49.867Z,100078.00
2023-02-26T16:39:30.595Z,100076.00
2023-02-26T16:41:11.036Z,100078.00
2023-02-26T16:42:54.443Z,100073.00
2023-02-26T16:44:49.738Z,100078.00
2023-02-26T16:46:35.284Z,100077.00
2023-02-26T16:48:16.619Z,100082.00
2023-02-26T16:49:53.302Z,100088.00
2023-02-26T16:51:32.033Z,100093.00
2023-02-26T16:53:10.012Z,100091.00
2023-02-26T16:54:55.927Z,100084.00
2023-02-26T16:56:33.888Z,100092.00
2023-02-26T16:58:12.676Z,100092.00
2023-02-26T16:59:54.656Z,100096.00
2023-02-26T17:01:29.787Z,100093.00
2023-02-26T17:03:09.981Z,100090.00
2023-02-26T17:04:43.790Z,100088.00
2023-02-26T17:06:20.271Z,100097.00
2023-02-26T17:08:02.086Z,100099.00
2023-02-26T17:09:39.941Z,100104.00
2023-02-26T17:11:24.936Z,100108.00
2023-02-26T17:13:13.442Z,100108.00
2023-02-26T17:14:53.061Z,100105.00
2023-02-26T17:16:26.934Z,100113.00
2023-02-26T17:18:00.645Z,100106.00
2023-02-26T17:19:35.709Z,100125.00
2023-02-26T17:21:10.668Z,100118.00
2023-02-26T17:22:45.863Z,100123.00
2023-02-26T17:24:27.647Z,100121.00
2023-02-26T17:26:02.362Z,100120.00
2023-02-26T17:27:38.050Z,100120.00
2023-02-26T17:29:19.700Z,100126.00
2023-02-26T17:30:53.394Z,100132.00
2023-02-26T17:32:30.147Z,100129.00
2023-02-26T17:34:03.379Z,100136.00
2023-02-26T17:35:36.565Z,100134.00
2023-02-26T17:37:12.625Z,100134.00
2023-02-26T17:38:47.117Z,100136.00
2023-02-26T17:40:24.721Z,100147.00
2023-02-26T17:41:57.862Z,100132.00
2023-02-26T17:43:33.365Z,100134.00
2023-02-26T17:45:07.686Z,100141.00
2023-02-26T17:46:41.039Z,100145.00
2023-02-26T17:48:16.549Z,100147.00
2023-02-26T17:49:50.187Z,100151.00
2023-02-26T17:51:23.719Z,100155.00
2023-02-26T17:52:57.337Z,100147.00
2023-02-26T17:54:30.436Z,100149.00
2023-02-26T17:56:03.584Z,100152.00
2023-02-26T17:57:36.721Z,100150.00
2023-02-26T17:59:13.033Z,100153.00
2023-02-26T18:00:49.678Z,100159.00
2023-02-26T18:02:27.283Z,100149.00
2023-02-26T18:04:03.366Z,100158.00
2023-02-26T18:05:41.031Z,100158.00
2023-02-26T18:07:17.292Z,100164.00
2023-02-26T18:08:50.915Z,100152.00
2023-02-26T18:10:25.762Z,100160.00
2023-02-26T18:11:58.898Z,100147.00
2023-02-26T18:13:33.302Z,100155.00
2023-02-26T18:15:10.089Z,100147.00
2023-02-26T18:16:45.172Z,100158.00
2023-02-26T18:18:20.541Z,100158.00
2023-02-26T18:19:54.197Z,100163.00
2023-02-26T18:21:58.789Z,100157.00
2023-02-26T18:23:32.176Z,100167.00
2023-02-26T18:25:06.338Z,100162.00
2023-02-26T18:26:39.445Z,100171.00
2023-02-26T18:28:20.331Z,100169.00
2023-02-26T18:30:01.252Z,100166.00
2023-02-26T18:31:36.588Z,100176.00
2023-02-26T18:33:19.234Z,100171.00
2023-02-26T18:34:58.504Z,100172.00
2023-02-26T18:36:37.586Z,100176.00
2023-02-26T18:38:13.427Z,100176.00
2023-02-26T18:39:47.457Z,100177.00
2023-02-26T18:41:20.884Z,100178.00
2023-02-26T18:42:54.530Z,100180.00
2023-02-26T18:44:28.520Z,100175.00
2023-02-26T18:46:02.259Z,100175.00
2023-02-26T18:47:37.702Z,100186.00
2023-02-26T18:49:19.467Z,100181.00
2023-02-26T18:50:55.612Z,100191.00
2023-02-26T18:52:28.788Z,100183.00
2023-02-26T18:54:02.142Z,100183.00
2023-02-26T18:55:37.170Z,100184.00
2023-02-26T18:57:10.976Z,100186.00
2023-02-26T18:58:44.071Z,100188.00
2023-02-26T19:00:18.005Z,100182.00
2023-02-26T19:01:51.475Z,100189.00
2023-02-26T19:03:26.438Z,100193.00
2023-02-26T19:04:59.608Z,100181.00
2023-02-26T19:06:32.694Z,100191.00
2023-02-26T19:08:07.516Z,100197.00
2023-02-26T19:09:41.303Z,100198.00
2023-02-26T19:11:14.600Z,100193.00
2023-02-26T19:12:47.862Z,100201.00
2023-02-26T19:14:21.058Z,100191.00
2023-02-26T19:15:54.883Z,100202.00
2023-02-26T19:17:28.500Z,100198.00
2023-02-26T19:19:05.182Z,100201.00
2023-02-26T19:20:38.925Z,100210.00
2023-02-26T19:22:15.017Z,100206.00
2023-02-26T19:23:48.519Z,100208.00